Time;durP1;ratioP1;P1;durP2;ratioP2;P2;SDS_P1;SDS_P2;PMS_P1;PMS_P2;Temp;Humidity;BMP_temperature;BMP_pressure;BME280_temperature;BME280_humidity;BME280_pressure;Samples;Min_cycle;Max_cycle;Signal;HPM_P1;HPM_P2
2021/04/26 00:01:52;;;;;;;10.63;4.32;;;7.60;99.90;;;;;;5059684;28;20127;-70
2021/04/26 00:04:17;;;;;;;13.38;4.45;;;7.60;99.90;;;;;;5062239;28;20021;-71
2021/04/26 00:06:43;;;;;;;18.05;4.60;;;7.60;99.90;;;;;;5041181;28;20045;-70
2021/04/26 00:09:09;;;;;;;13.18;4.07;;;7.50;99.90;;;;;;5061076;28;20024;-70
2021/04/26 00:11:35;;;;;;;7.90;4.00;;;7.60;99.90;;;;;;5059826;28;20040;-71
2021/04/26 00:14:01;;;;;;;10.93;4.07;;;7.60;99.90;;;;;;5054891;28;20052;-70
2021/04/26 00:16:27;;;;;;;15.77;4.20;;;7.60;99.90;;;;;;5060098;28;20065;-71
2021/04/26 00:18:52;;;;;;;11.90;4.22;;;7.60;99.90;;;;;;5061485;28;20016;-71
2021/04/26 00:21:18;;;;;;;13.82;4.30;;;7.50;99.90;;;;;;5056319;28;20507;-71
2021/04/26 00:23:44;;;;;;;12.40;4.07;;;7.50;99.90;;;;;;5063137;28;20025;-71
2021/04/26 00:26:10;;;;;;;10.77;3.50;;;7.40;99.90;;;;;;5065323;28;20032;-71
2021/04/26 00:28:36;;;;;;;9.40;3.92;;;7.40;99.90;;;;;;5061612;28;20020;-71
2021/04/26 00:31:02;;;;;;;14.50;4.18;;;7.30;99.90;;;;;;5062513;28;20403;-71
2021/04/26 00:33:28;;;;;;;14.10;3.85;;;7.20;99.90;;;;;;5059518;28;20024;-71
2021/04/26 00:35:54;;;;;;;10.30;4.15;;;7.30;99.90;;;;;;5044336;28;20028;-71
2021/04/26 00:38:20;;;;;;;11.30;3.90;;;7.20;99.90;;;;;;5058316;28;20025;-71
2021/04/26 00:40:45;;;;;;;10.90;4.47;;;7.20;99.90;;;;;;5062423;28;21327;-71
2021/04/26 00:43:11;;;;;;;14.35;3.67;;;7.20;99.90;;;;;;5060123;28;20043;-71
2021/04/26 00:45:37;;;;;;;11.32;4.20;;;7.20;99.90;;;;;;5066128;28;20088;-71
2021/04/26 00:48:03;;;;;;;10.05;3.40;;;7.20;99.90;;;;;;5065113;28;20020;-71
2021/04/26 00:50:31;;;;;;;9.88;3.70;;;7.10;99.90;;;;;;5059691;28;20029;-71
2021/04/26 00:52:58;;;;;;;14.38;3.90;;;7.10;99.90;;;;;;5059358;28;20043;-71
2021/04/26 00:55:26;;;;;;;6.60;4.10;;;7.10;99.90;;;;;;5058050;28;20044;-71
2021/04/26 00:57:53;;;;;;;16.75;4.25;;;7.10;99.90;;;;;;5057956;28;20108;-71
2021/04/26 01:00:20;;;;;;;8.50;3.22;;;7.10;99.90;;;;;;5055581;28;20021;-72
2021/04/26 01:02:46;;;;;;;12.02;4.25;;;7.00;99.90;;;;;;5062449;28;20037;-71
2021/04/26 01:05:15;;;;;;;8.55;3.78;;;7.10;99.90;;;;;;5058735;28;20025;-71
2021/04/26 01:07:41;;;;;;;14.93;4.03;;;7.00;99.90;;;;;;5059718;28;20033;-71
2021/04/26 01:10:11;;;;;;;7.40;3.60;;;6.90;99.90;;;;;;5065045;28;20023;-71
2021/04/26 01:13:14;;;;;;;18.45;3.78;;;6.80;99.90;;;;;;5040750;28;20028;-71
2021/04/26 01:16:03;;;;;;;13.85;3.47;;;6.80;99.90;;;;;;5051108;28;20032;-71
2021/04/26 01:18:51;;;;;;;11.18;4.25;;;6.90;99.90;;;;;;5048544;28;20039;-71
2021/04/26 01:21:49;;;;;;;11.50;4.05;;;6.80;99.90;;;;;;5043582;28;20095;-71
2021/04/26 01:24:36;;;;;;;14.00;3.80;;;6.90;99.90;;;;;;5056899;28;20061;-71
2021/04/26 01:27:32;;;;;;;7.45;3.60;;;6.80;99.90;;;;;;5059650;28;20017;-71
2021/04/26 01:30:07;;;;;;;9.18;3.67;;;6.80;99.90;;;;;;5055393;28;20538;-71
2021/04/26 01:32:39;;;;;;;12.52;4.03;;;6.80;99.90;;;;;;5062012;28;20032;-71
2021/04/26 01:35:06;;;;;;;14.73;3.88;;;6.80;99.90;;;;;;5061921;28;20056;-71
2021/04/26 01:37:35;;;;;;;10.13;3.88;;;6.70;99.90;;;;;;5062503;28;20064;-71
2021/04/26 01:40:05;;;;;;;9.43;3.72;;;6.70;99.90;;;;;;5060562;28;20032;-71
2021/04/26 01:42:32;;;;;;;12.50;4.22;;;6.70;99.90;;;;;;5063661;28;20495;-72
2021/04/26 01:45:02;;;;;;;16.52;4.35;;;6.70;99.90;;;;;;5072617;28;20020;-71
2021/04/26 01:47:29;;;;;;;16.60;4.32;;;6.70;99.90;;;;;;5068459;28;20075;-71
2021/04/26 01:49:56;;;;;;;9.35;3.85;;;6.60;99.90;;;;;;5060690;28;20103;-71
2021/04/26 01:52:23;;;;;;;9.25;4.05;;;6.60;99.90;;;;;;5066260;28;20024;-71
2021/04/26 01:54:50;;;;;;;9.55;3.70;;;6.60;99.90;;;;;;5067842;28;20110;-71
2021/04/26 01:57:16;;;;;;;11.23;4.28;;;6.70;99.90;;;;;;5060689;28;20040;-71
2021/04/26 01:59:42;;;;;;;13.23;3.67;;;6.60;99.90;;;;;;5065608;28;20103;-71
2021/04/26 02:02:07;;;;;;;12.90;3.70;;;6.70;99.90;;;;;;5065760;28;20111;-71
2021/04/26 02:04:37;;;;;;;11.25;3.53;;;6.60;99.90;;;;;;5047716;28;20029;-71
2021/04/26 02:07:03;;;;;;;14.48;4.25;;;6.60;99.90;;;;;;5059779;28;20547;-71
2021/04/26 02:09:30;;;;;;;7.45;3.97;;;6.60;99.90;;;;;;5064524;28;20021;-72
2021/04/26 02:11:58;;;;;;;9.65;3.60;;;6.50;99.90;;;;;;5048638;28;20028;-71
2021/04/26 02:14:26;;;;;;;10.15;3.80;;;6.50;99.90;;;;;;5069578;28;20052;-71
2021/04/26 02:16:52;;;;;;;8.82;3.80;;;6.50;99.90;;;;;;5069957;28;20074;-71
2021/04/26 02:19:17;;;;;;;6.82;3.65;;;6.50;99.90;;;;;;5057318;28;20037;-72
2021/04/26 02:21:43;;;;;;;7.72;3.47;;;6.50;99.90;;;;;;5056145;28;20090;-71
2021/04/26 02:24:10;;;;;;;11.00;3.42;;;6.40;99.90;;;;;;5067136;28;20099;-71
2021/04/26 02:26:35;;;;;;;11.32;3.63;;;6.30;99.90;;;;;;5051863;28;20058;-71
2021/04/26 02:29:03;;;;;;;11.43;3.92;;;6.30;99.90;;;;;;5062984;28;20104;-70
2021/04/26 02:31:32;;;;;;;10.40;3.83;;;6.30;99.90;;;;;;5057384;28;20075;-71
2021/04/26 02:34:09;;;;;;;8.65;3.83;;;6.30;99.90;;;;;;5065843;28;20116;-71
2021/04/26 02:36:38;;;;;;;16.80;4.85;;;6.20;99.90;;;;;;5061986;28;20123;-71
2021/04/26 02:39:07;;;;;;;11.52;3.65;;;6.20;99.90;;;;;;5060119;28;20072;-71
2021/04/26 02:41:39;;;;;;;13.10;4.18;;;6.20;99.90;;;;;;5060059;28;20028;-71
2021/04/26 02:44:11;;;;;;;12.80;3.97;;;6.20;99.90;;;;;;5066097;28;20020;-71
2021/04/26 02:46:37;;;;;;;10.90;4.10;;;6.10;99.90;;;;;;5066230;28;20091;-71
2021/04/26 02:49:04;;;;;;;9.70;3.90;;;6.10;99.90;;;;;;5062996;28;20144;-71
2021/04/26 02:51:33;;;;;;;13.15;4.35;;;6.20;99.90;;;;;;5076145;28;20021;-71
2021/04/26 02:54:01;;;;;;;7.43;3.70;;;6.20;99.90;;;;;;5064269;28;20028;-71
2021/04/26 02:56:28;;;;;;;5.70;3.30;;;6.10;99.90;;;;;;5063526;28;20025;-71
2021/04/26 02:58:56;;;;;;;14.02;4.60;;;6.10;99.90;;;;;;5058661;28;20032;-71
2021/04/26 03:01:22;;;;;;;9.15;3.55;;;6.20;99.90;;;;;;5062135;28;20068;-71
2021/04/26 03:03:50;;;;;;;25.05;4.65;;;6.20;99.90;;;;;;5065897;28;20481;-71
2021/04/26 03:06:16;;;;;;;9.02;3.88;;;6.20;99.90;;;;;;5062758;28;20032;-71
2021/04/26 03:08:43;;;;;;;9.02;3.42;;;6.20;99.90;;;;;;5057823;28;20025;-71
2021/04/26 03:11:12;;;;;;;8.73;4.32;;;6.10;99.90;;;;;;5060180;28;20029;-71
2021/04/26 03:13:39;;;;;;;8.15;3.90;;;6.00;99.90;;;;;;5059516;28;20389;-71
2021/04/26 03:16:06;;;;;;;9.98;3.67;;;6.00;99.90;;;;;;5058325;28;20044;-71
2021/04/26 03:18:33;;;;;;;6.60;3.35;;;6.10;99.90;;;;;;5046674;28;20392;-71
2021/04/26 03:21:02;;;;;;;10.15;3.63;;;6.00;99.90;;;;;;5060313;28;20031;-71
2021/04/26 03:23:28;;;;;;;10.27;4.40;;;6.00;99.90;;;;;;5065983;28;20021;-71
2021/04/26 03:25:59;;;;;;;12.00;4.22;;;5.90;99.90;;;;;;5066001;28;20554;-71
2021/04/26 03:28:26;;;;;;;16.42;3.58;;;5.90;99.90;;;;;;5058966;28;20377;-71
2021/04/26 03:30:51;;;;;;;8.48;3.60;;;5.80;99.90;;;;;;5072385;28;20103;-71
2021/04/26 03:33:18;;;;;;;13.63;3.90;;;5.80;99.90;;;;;;5070865;28;20684;-71
2021/04/26 03:35:44;;;;;;;9.07;3.70;;;5.80;99.90;;;;;;5063840;28;20025;-71
2021/04/26 03:38:15;;;;;;;8.13;4.20;;;5.80;99.90;;;;;;5058180;28;20485;-71
2021/04/26 03:40:41;;;;;;;10.40;4.20;;;5.70;99.90;;;;;;5067086;28;20032;-71
2021/04/26 03:43:07;;;;;;;12.77;4.07;;;5.60;99.90;;;;;;5067811;28;20108;-71
2021/04/26 03:45:33;;;;;;;9.85;4.55;;;5.60;99.90;;;;;;5058208;28;20112;-71
2021/04/26 03:47:58;;;;;;;8.48;4.22;;;5.70;99.90;;;;;;5067435;28;20508;-71
2021/04/26 03:50:26;;;;;;;8.70;3.88;;;5.70;99.90;;;;;;5061105;28;20021;-71
2021/04/26 03:52:52;;;;;;;11.50;3.88;;;5.60;99.90;;;;;;5068510;28;20038;-71
2021/04/26 03:55:23;;;;;;;10.07;4.07;;;5.50;99.90;;;;;;5062411;28;20390;-71
2021/04/26 03:57:49;;;;;;;6.13;3.70;;;5.40;99.90;;;;;;5066863;28;20037;-70
2021/04/26 04:00:15;;;;;;;7.40;4.03;;;5.50;99.90;;;;;;5072187;28;20029;-71
2021/04/26 04:02:41;;;;;;;10.40;4.32;;;5.50;99.90;;;;;;5059223;28;20029;-71
2021/04/26 04:05:09;;;;;;;9.32;4.47;;;5.50;99.90;;;;;;5068269;28;20013;-71
2021/04/26 04:07:35;;;;;;;10.88;4.60;;;5.40;99.90;;;;;;5063292;28;20107;-71
2021/04/26 04:10:03;;;;;;;12.55;4.35;;;5.40;99.90;;;;;;5061810;28;20491;-71
2021/04/26 04:12:29;;;;;;;7.07;3.60;;;5.50;99.90;;;;;;5061546;28;20103;-71
2021/04/26 04:14:54;;;;;;;8.52;4.15;;;5.40;99.90;;;;;;5063789;28;20135;-71
2021/04/26 04:17:20;;;;;;;10.75;4.72;;;5.40;99.90;;;;;;5070801;28;20037;-72
2021/04/26 04:19:46;;;;;;;12.40;4.40;;;5.40;99.90;;;;;;5064969;28;20029;-71
2021/04/26 04:22:12;;;;;;;6.95;3.72;;;5.40;99.90;;;;;;5062111;28;20082;-71
2021/04/26 04:24:37;;;;;;;7.70;3.75;;;5.40;99.90;;;;;;5066725;28;20036;-72
2021/04/26 04:27:03;;;;;;;12.43;3.97;;;5.40;99.90;;;;;;5059153;28;20032;-71
2021/04/26 04:29:29;;;;;;;10.52;3.97;;;5.40;99.90;;;;;;5065716;28;20473;-72
2021/04/26 04:31:55;;;;;;;9.57;4.05;;;5.40;99.90;;;;;;5076343;28;20385;-72
2021/04/26 04:34:21;;;;;;;8.63;4.55;;;5.40;99.90;;;;;;5071881;28;20477;-71
2021/04/26 04:36:46;;;;;;;7.15;4.13;;;5.40;99.90;;;;;;5067192;28;20054;-72
2021/04/26 04:39:12;;;;;;;13.00;4.43;;;5.40;99.90;;;;;;5062424;28;20099;-72
2021/04/26 04:41:38;;;;;;;12.68;4.32;;;5.40;99.90;;;;;;5064481;28;20565;-72
2021/04/26 04:44:04;;;;;;;11.55;4.40;;;5.30;99.90;;;;;;5064977;28;20035;-71
2021/04/26 04:46:29;;;;;;;11.73;4.25;;;5.40;99.90;;;;;;5060161;28;20023;-72
2021/04/26 04:48:56;;;;;;;10.32;3.92;;;5.40;99.90;;;;;;5065798;28;20040;-71
2021/04/26 04:51:22;;;;;;;9.25;4.47;;;5.30;99.90;;;;;;5064735;28;20049;-72
2021/04/26 04:53:48;;;;;;;8.52;3.97;;;5.30;99.90;;;;;;5067244;28;20428;-72
2021/04/26 04:56:14;;;;;;;9.50;3.70;;;5.30;99.90;;;;;;5062031;28;20039;-72
2021/04/26 04:58:40;;;;;;;8.07;3.90;;;5.30;99.90;;;;;;5069074;28;20025;-72
2021/04/26 05:01:06;;;;;;;6.85;4.20;;;5.30;99.90;;;;;;5057500;28;20017;-71
2021/04/26 05:03:32;;;;;;;7.65;3.60;;;5.30;99.90;;;;;;5068583;28;20077;-71
2021/04/26 05:05:57;;;;;;;9.20;4.13;;;5.30;99.90;;;;;;5067723;28;20046;-72
2021/04/26 05:08:23;;;;;;;7.00;4.05;;;5.40;99.90;;;;;;5047416;28;20029;-72
2021/04/26 05:10:48;;;;;;;7.00;3.83;;;5.40;99.90;;;;;;5069547;28;20032;-72
2021/04/26 05:13:14;;;;;;;10.75;4.13;;;5.40;99.90;;;;;;5060882;28;20025;-71
2021/04/26 05:15:40;;;;;;;12.32;4.90;;;5.50;99.90;;;;;;5069785;28;20037;-72
2021/04/26 05:18:09;;;;;;;7.25;3.90;;;5.50;99.90;;;;;;5047204;28;20060;-72
2021/04/26 05:20:35;;;;;;;10.48;4.10;;;5.50;99.90;;;;;;5060654;28;20104;-72
2021/04/26 05:23:02;;;;;;;17.30;4.40;;;5.40;99.90;;;;;;5065205;28;20392;-72
2021/04/26 05:25:27;;;;;;;13.07;4.60;;;5.50;99.90;;;;;;5073117;28;20416;-72
2021/04/26 05:27:53;;;;;;;11.27;3.75;;;5.50;99.90;;;;;;5067637;28;20163;-72
2021/04/26 05:30:19;;;;;;;10.10;3.80;;;5.50;99.90;;;;;;5065698;28;20047;-72
2021/04/26 05:32:46;;;;;;;7.55;3.92;;;5.40;99.90;;;;;;5047952;28;20016;-72
2021/04/26 05:35:12;;;;;;;9.10;4.43;;;5.50;99.90;;;;;;5064938;28;20028;-72
2021/04/26 05:37:38;;;;;;;8.85;3.95;;;5.60;99.90;;;;;;5067353;28;20103;-72
2021/04/26 05:40:04;;;;;;;6.88;3.78;;;5.70;99.90;;;;;;5067977;28;20111;-73
2021/04/26 05:42:30;;;;;;;7.40;4.30;;;5.80;99.90;;;;;;5075775;28;20017;-73
2021/04/26 05:44:55;;;;;;;6.68;3.45;;;5.90;99.90;;;;;;5067101;28;20415;-72
2021/04/26 05:47:21;;;;;;;7.95;3.58;;;5.90;99.90;;;;;;5064744;28;20221;-72
2021/04/26 05:49:47;;;;;;;6.50;3.88;;;5.90;99.90;;;;;;5065523;28;20527;-72
2021/04/26 05:52:12;;;;;;;8.10;3.88;;;5.90;99.90;;;;;;5059122;28;20013;-73
2021/04/26 05:54:38;;;;;;;10.60;4.43;;;6.00;99.90;;;;;;5066538;28;20037;-72
2021/04/26 05:57:04;;;;;;;7.80;3.75;;;6.10;99.90;;;;;;5064091;28;20075;-72
2021/04/26 05:59:30;;;;;;;7.25;3.78;;;6.10;99.90;;;;;;5057439;28;20446;-72
2021/04/26 06:01:55;;;;;;;12.27;4.05;;;6.10;99.90;;;;;;5058461;28;20053;-73
2021/04/26 06:04:21;;;;;;;10.40;5.15;;;6.10;99.90;;;;;;5061801;28;20055;-72
2021/04/26 06:06:47;;;;;;;15.43;5.32;;;6.20;99.90;;;;;;5058935;28;20037;-72
2021/04/26 06:09:12;;;;;;;7.65;4.40;;;6.20;99.90;;;;;;5047914;28;20074;-73
2021/04/26 06:11:38;;;;;;;8.07;4.63;;;6.20;99.90;;;;;;5059406;28;20383;-73
2021/04/26 06:14:04;;;;;;;10.50;4.80;;;6.20;99.90;;;;;;5059350;28;20044;-72
2021/04/26 06:16:29;;;;;;;10.32;4.78;;;6.20;99.90;;;;;;5064493;28;20438;-72
2021/04/26 06:18:55;;;;;;;9.05;5.22;;;6.30;99.90;;;;;;5061514;28;20095;-71
2021/04/26 06:21:20;;;;;;;9.63;4.80;;;6.50;99.90;;;;;;5062011;28;20093;-73
2021/04/26 06:23:46;;;;;;;9.27;4.10;;;6.60;99.90;;;;;;5068683;28;20542;-73
2021/04/26 06:26:12;;;;;;;8.07;4.30;;;6.50;99.90;;;;;;5064083;28;20059;-73
2021/04/26 06:28:38;;;;;;;8.95;3.55;;;6.60;99.90;;;;;;5047824;28;20704;-73
2021/04/26 06:31:04;;;;;;;7.93;4.43;;;6.60;99.90;;;;;;5066877;28;20393;-73
2021/04/26 06:33:30;;;;;;;7.45;4.03;;;6.50;99.90;;;;;;5065544;28;20390;-72
2021/04/26 06:35:55;;;;;;;11.15;4.75;;;6.50;99.90;;;;;;5065079;28;20039;-73
2021/04/26 06:38:22;;;;;;;6.07;4.55;;;6.60;99.90;;;;;;5044240;28;20051;-72
2021/04/26 06:40:48;;;;;;;11.88;4.32;;;6.60;99.90;;;;;;5066049;28;20090;-73
2021/04/26 06:43:14;;;;;;;9.88;4.65;;;6.60;99.90;;;;;;5065302;28;20036;-72
2021/04/26 06:45:41;;;;;;;10.02;4.43;;;6.80;99.90;;;;;;5060578;28;20044;-73
2021/04/26 06:48:08;;;;;;;7.13;4.40;;;6.90;99.90;;;;;;5057737;28;20060;-73
2021/04/26 06:50:34;;;;;;;9.73;4.65;;;6.90;99.90;;;;;;5044107;28;20025;-73
2021/04/26 06:53:00;;;;;;;10.98;4.35;;;6.90;99.90;;;;;;5069097;28;20017;-73
2021/04/26 06:55:26;;;;;;;8.23;4.57;;;7.00;99.90;;;;;;5060292;28;20033;-72
2021/04/26 06:57:53;;;;;;;9.82;4.35;;;7.30;99.90;;;;;;5062131;28;20041;-73
2021/04/26 07:00:21;;;;;;;13.85;5.00;;;7.40;99.90;;;;;;5067664;28;20064;-72
2021/04/26 07:02:48;;;;;;;10.38;5.68;;;7.50;99.90;;;;;;5065365;28;20470;-73
2021/04/26 07:05:14;;;;;;;9.93;5.25;;;7.60;99.90;;;;;;5065502;28;20012;-74
2021/04/26 07:07:39;;;;;;;10.73;5.18;;;7.50;99.90;;;;;;5060063;28;21234;-73
2021/04/26 07:10:06;;;;;;;12.45;5.25;;;7.50;99.90;;;;;;5063239;28;20025;-72
2021/04/26 07:12:32;;;;;;;13.77;5.47;;;7.60;99.90;;;;;;5073746;28;20024;-73
2021/04/26 07:14:57;;;;;;;17.58;5.50;;;7.90;99.90;;;;;;5067182;28;20075;-73
2021/04/26 07:17:23;;;;;;;6.68;4.50;;;8.10;99.90;;;;;;5064276;28;20124;-73
2021/04/26 07:19:50;;;;;;;9.45;4.90;;;8.10;99.90;;;;;;5057340;28;20065;-72
2021/04/26 07:22:16;;;;;;;10.02;4.63;;;8.20;99.90;;;;;;5060985;28;20029;-72
2021/04/26 07:24:42;;;;;;;9.55;4.22;;;8.40;99.90;;;;;;5045652;28;20155;-73
2021/04/26 07:27:08;;;;;;;7.35;3.42;;;8.50;99.90;;;;;;5060206;28;20099;-73
2021/04/26 07:29:34;;;;;;;10.93;4.35;;;8.60;99.90;;;;;;5053926;28;20028;-72
2021/04/26 07:31:59;;;;;;;9.63;4.43;;;8.80;99.90;;;;;;5059336;28;20048;-73
2021/04/26 07:34:25;;;;;;;6.55;3.63;;;9.00;99.90;;;;;;5059137;28;20536;-73
2021/04/26 07:36:51;;;;;;;8.57;5.05;;;9.30;99.90;;;;;;5062173;28;20397;-73
2021/04/26 07:39:18;;;;;;;11.13;4.65;;;9.50;99.90;;;;;;5061569;28;20032;-73
2021/04/26 07:41:44;;;;;;;10.77;4.40;;;9.60;99.90;;;;;;5061762;28;20025;-73
2021/04/26 07:44:10;;;;;;;10.75;4.10;;;9.80;98.90;;;;;;5061063;28;20362;-73
2021/04/26 07:46:36;;;;;;;10.68;4.75;;;9.80;98.90;;;;;;5063810;28;20025;-73
2021/04/26 07:49:02;;;;;;;9.00;4.75;;;9.80;98.30;;;;;;5068838;28;20048;-73
2021/04/26 07:51:27;;;;;;;6.65;3.85;;;10.00;98.70;;;;;;5068949;28;20473;-73
2021/04/26 07:53:53;;;;;;;8.15;4.40;;;10.10;98.50;;;;;;5056173;28;20037;-73
2021/04/26 07:56:19;;;;;;;7.70;4.38;;;10.20;97.30;;;;;;5065118;28;20032;-72
2021/04/26 07:58:44;;;;;;;9.00;4.20;;;10.50;97.60;;;;;;5067533;28;20037;-73
2021/04/26 08:01:10;;;;;;;10.50;4.75;;;10.60;96.40;;;;;;5059999;28;20021;-73
2021/04/26 08:03:36;;;;;;;7.82;3.70;;;10.70;97.10;;;;;;5055333;28;20056;-72
2021/04/26 08:06:02;;;;;;;8.55;4.00;;;10.90;96.10;;;;;;5037957;28;20036;-72
2021/04/26 08:08:28;;;;;;;7.82;4.18;;;11.00;96.50;;;;;;5070792;28;20024;-72
2021/04/26 08:10:54;;;;;;;9.45;5.00;;;11.10;95.90;;;;;;5060991;28;20031;-72
2021/04/26 08:13:20;;;;;;;9.82;3.88;;;11.20;95.80;;;;;;5065324;28;20385;-72
2021/04/26 08:15:46;;;;;;;12.68;4.20;;;11.30;95.50;;;;;;5062461;28;20032;-72
2021/04/26 08:18:12;;;;;;;8.18;4.18;;;11.50;95.60;;;;;;5061458;28;20085;-73
2021/04/26 08:20:37;;;;;;;6.55;3.70;;;11.60;95.10;;;;;;5066315;28;20031;-72
2021/04/26 08:23:04;;;;;;;6.70;3.85;;;11.60;93.80;;;;;;5069445;28;20023;-71
2021/04/26 08:25:30;;;;;;;7.18;3.78;;;11.70;93.60;;;;;;5057908;28;20028;-72
2021/04/26 08:27:57;;;;;;;5.18;3.83;;;11.70;93.20;;;;;;5056932;28;20018;-72
2021/04/26 08:30:22;;;;;;;5.10;4.15;;;11.80;93.50;;;;;;5065206;28;20033;-71
2021/04/26 08:32:48;;;;;;;5.80;3.55;;;12.00;93.50;;;;;;5075933;28;20427;-71
2021/04/26 08:35:14;;;;;;;6.13;4.03;;;12.00;92.40;;;;;;5072552;28;20060;-71
2021/04/26 08:37:40;;;;;;;6.20;3.90;;;12.20;92.20;;;;;;5069899;28;20410;-72
2021/04/26 08:40:07;;;;;;;4.55;3.97;;;12.20;92.10;;;;;;5072999;28;20556;-72
2021/04/26 08:42:32;;;;;;;7.00;3.83;;;12.30;92.40;;;;;;5068946;28;20028;-72
2021/04/26 08:44:58;;;;;;;8.55;3.90;;;12.50;92.20;;;;;;5070050;28;20031;-72
2021/04/26 08:47:25;;;;;;;7.10;4.10;;;12.40;91.60;;;;;;5071933;28;20108;-71
2021/04/26 08:49:56;;;;;;;7.93;4.07;;;12.60;91.40;;;;;;5069366;28;20024;-72
2021/04/26 08:52:22;;;;;;;4.72;3.33;;;12.70;91.10;;;;;;5069654;28;20029;-71
2021/04/26 08:54:48;;;;;;;8.88;3.92;;;12.90;90.40;;;;;;5073523;28;20024;-71
2021/04/26 08:57:13;;;;;;;6.97;4.00;;;12.80;90.00;;;;;;5065879;28;20040;-71
2021/04/26 08:59:42;;;;;;;14.98;4.63;;;12.90;88.50;;;;;;5062288;28;20039;-71
2021/04/26 09:02:09;;;;;;;6.57;3.90;;;13.00;89.30;;;;;;5067303;28;20462;-72
2021/04/26 09:04:36;;;;;;;9.85;3.35;;;13.10;85.20;;;;;;5065637;28;20176;-71
2021/04/26 09:07:03;;;;;;;7.05;3.15;;;13.20;86.30;;;;;;5062219;28;20101;-72
2021/04/26 09:09:36;;;;;;;5.20;3.33;;;13.40;83.10;;;;;;5064578;28;20090;-72
2021/04/26 09:12:02;;;;;;;;;;;13.40;81.60;;;;;;5061919;28;20028;-71
2021/04/26 09:14:46;;;;;;;6.13;3.55;;;13.50;83.30;;;;;;5062388;28;19912;-72
2021/04/26 09:17:38;;;;;;;7.88;3.42;;;13.80;83.00;;;;;;5053528;28;20079;-71
2021/04/26 09:20:15;;;;;;;6.80;3.60;;;13.90;82.00;;;;;;5071244;28;20114;-72
2021/04/26 09:22:58;;;;;;;6.03;3.55;;;13.90;83.30;;;;;;5064774;28;20471;-72
2021/04/26 09:25:37;;;;;;;9.55;3.58;;;14.20;83.10;;;;;;5063986;28;20378;-72
2021/04/26 09:28:18;;;;;;;6.95;3.60;;;14.20;83.40;;;;;;5063770;28;20055;-72
2021/04/26 09:30:48;;;;;;;8.20;3.25;;;14.40;83.40;;;;;;5057590;28;20033;-72
2021/04/26 09:33:33;;;;;;;5.40;3.33;;;14.70;79.70;;;;;;5070759;28;20029;-72
2021/04/26 09:36:30;;;;;;;6.18;3.85;;;14.90;80.20;;;;;;5062173;28;20053;-73
2021/04/26 09:39:00;;;;;;;6.53;3.08;;;14.60;78.90;;;;;;5071580;28;20115;-72
2021/04/26 09:41:28;;;;;;;4.07;3.20;;;14.50;78.60;;;;;;5068404;28;20330;-72
2021/04/26 09:44:09;;;;;;;7.13;3.13;;;14.40;78.60;;;;;;5067507;28;20500;-72
2021/04/26 09:46:44;;;;;;;4.90;3.50;;;14.50;75.80;;;;;;5066566;28;20545;-71
2021/04/26 09:49:19;;;;;;;4.60;2.70;;;14.50;77.40;;;;;;5068822;28;20040;-72
2021/04/26 09:51:50;;;;;;;5.65;3.17;;;14.70;77.20;;;;;;5074030;28;20086;-72
2021/04/26 09:54:16;;;;;;;5.72;3.30;;;14.90;76.80;;;;;;5057674;28;20020;-71
2021/04/26 09:56:45;;;;;;;8.20;4.15;;;14.90;75.70;;;;;;5062542;28;20054;-73
2021/04/26 09:59:15;;;;;;;5.85;3.45;;;15.00;77.80;;;;;;5057058;28;20031;-72
2021/04/26 10:01:43;;;;;;;4.63;3.50;;;14.90;73.60;;;;;;5060368;28;20136;-70
2021/04/26 10:04:12;;;;;;;9.48;3.20;;;15.10;74.80;;;;;;5067235;28;20025;-72
2021/04/26 10:06:39;;;;;;;9.75;3.28;;;15.00;75.70;;;;;;5061644;28;20036;-71
2021/04/26 10:09:08;;;;;;;5.60;3.38;;;15.20;75.30;;;;;;5061085;28;20478;-72
2021/04/26 10:11:36;;;;;;;5.40;3.28;;;15.00;73.20;;;;;;5059775;28;20025;-72
2021/04/26 10:14:10;;;;;;;7.35;3.10;;;14.90;73.90;;;;;;5058480;28;20040;-71
2021/04/26 10:16:54;;;;;;;4.43;3.15;;;15.20;74.60;;;;;;5065738;28;21473;-71
2021/04/26 10:19:30;;;;;;;7.53;3.38;;;15.10;73.70;;;;;;5068562;28;20481;-71
2021/04/26 10:21:58;;;;;;;5.97;3.88;;;15.10;73.40;;;;;;5058986;28;20048;-71
2021/04/26 10:24:25;;;;;;;9.20;3.78;;;15.30;74.40;;;;;;5052962;28;20029;-71
2021/04/26 10:27:02;;;;;;;8.02;3.58;;;15.60;73.40;;;;;;5056162;28;20033;-73
2021/04/26 10:29:30;;;;;;;5.78;3.08;;;15.70;70.10;;;;;;5062997;28;20024;-71
2021/04/26 10:31:59;;;;;;;3.88;2.75;;;15.50;70.10;;;;;;5061863;28;20449;-70
2021/04/26 10:34:33;;;;;;;9.30;3.58;;;15.70;70.10;;;;;;5064211;28;20029;-73
2021/04/26 10:37:05;;;;;;;3.45;2.42;;;15.90;73.50;;;;;;5058001;28;20044;-72
2021/04/26 10:39:33;;;;;;;6.45;3.22;;;15.80;68.90;;;;;;5064382;28;20452;-71
2021/04/26 10:42:00;;;;;;;9.20;3.03;;;15.70;68.90;;;;;;5063828;28;20191;-71
2021/04/26 10:44:40;;;;;;;5.65;3.00;;;15.70;70.70;;;;;;5052798;28;20104;-70
2021/04/26 10:47:24;;;;;;;4.57;2.83;;;15.90;71.10;;;;;;5059356;28;20029;-72
2021/04/26 10:50:02;;;;;;;5.38;2.95;;;15.80;66.70;;;;;;5060804;28;20025;-70
2021/04/26 10:52:30;;;;;;;5.90;3.03;;;15.80;68.10;;;;;;5068762;28;20492;-70
2021/04/26 10:55:23;;;;;;;4.88;2.70;;;15.90;66.80;;;;;;5066054;28;20024;-70
2021/04/26 10:57:58;;;;;;;5.67;2.73;;;16.00;66.80;;;;;;5034466;28;20052;-69
2021/04/26 11:00:27;;;;;;;4.65;2.90;;;16.10;66.10;;;;;;5044556;28;20290;-69
2021/04/26 11:03:00;;;;;;;8.45;3.97;;;16.20;67.30;;;;;;5050203;28;20081;-71
2021/04/26 11:05:42;;;;;;;5.00;3.38;;;16.50;67.30;;;;;;5061875;28;20108;-70
2021/04/26 11:11:26;;;;;;;4.47;3.55;;;16.80;67.70;;;;;;5066337;28;20063;-70
2021/04/26 11:14:02;;;;;;;5.45;3.28;;;16.80;67.10;;;;;;5072924;28;20036;-70
2021/04/26 11:16:51;;;;;;;5.53;3.42;;;16.30;64.70;;;;;;5067286;28;20031;-69
2021/04/26 11:19:17;;;;;;;4.30;2.85;;;16.40;68.80;;;;;;5067246;28;20028;-70
2021/04/26 11:21:47;;;;;;;5.30;3.42;;;16.20;66.80;;;;;;5066047;28;20032;-71
2021/04/26 11:24:21;;;;;;;8.90;3.40;;;16.40;68.40;;;;;;5065990;28;20020;-71
2021/04/26 11:27:10;;;;;;;6.07;3.35;;;16.60;66.80;;;;;;5068374;28;20051;-70
2021/04/26 11:29:55;;;;;;;4.25;2.90;;;16.80;67.40;;;;;;5061564;28;20528;-70
2021/04/26 11:32:22;;;;;;;4.78;2.95;;;16.40;66.00;;;;;;5067618;28;20029;-71
2021/04/26 11:34:48;;;;;;;14.32;6.57;;;16.30;65.10;;;;;;5063392;28;20032;-71
2021/04/26 11:37:15;;;;;;;6.10;3.88;;;16.50;65.60;;;;;;5065393;28;20028;-70
2021/04/26 11:39:41;;;;;;;5.32;3.60;;;16.50;65.30;;;;;;5072476;28;20037;-70
2021/04/26 11:42:08;;;;;;;3.92;3.33;;;16.60;67.10;;;;;;5069753;28;20529;-71
2021/04/26 11:44:37;;;;;;;9.45;4.68;;;16.00;62.80;;;;;;5071061;28;20031;-71
2021/04/26 11:47:08;;;;;;;6.95;4.20;;;16.10;64.60;;;;;;5075565;28;20428;-71
2021/04/26 11:49:36;;;;;;;6.10;3.60;;;16.20;64.10;;;;;;5070304;28;20465;-72
2021/04/26 11:52:16;;;;;;;5.13;3.20;;;16.20;66.00;;;;;;5068583;28;20032;-70
2021/04/26 11:54:46;;;;;;;6.60;3.25;;;16.30;65.30;;;;;;5071529;28;20036;-70
2021/04/26 11:57:23;;;;;;;4.85;3.45;;;16.70;64.50;;;;;;5066300;28;20532;-70
2021/04/26 11:59:50;;;;;;;6.18;3.70;;;16.70;63.80;;;;;;5070847;28;20108;-71
2021/04/26 12:02:43;;;;;;;4.97;3.33;;;16.70;63.40;;;;;;5071570;28;20473;-70
2021/04/26 12:05:17;;;;;;;5.80;2.97;;;16.90;62.70;;;;;;5068030;28;20032;-69
2021/04/26 12:07:45;;;;;;;7.70;3.85;;;17.00;63.30;;;;;;5049672;28;20036;-73
2021/04/26 12:10:12;;;;;;;7.63;3.40;;;17.00;64.10;;;;;;5075849;28;20028;-74
2021/04/26 12:12:40;;;;;;;7.60;3.90;;;17.10;65.10;;;;;;5067323;28;20381;-73
2021/04/26 12:15:13;;;;;;;7.22;3.65;;;17.30;62.70;;;;;;5065150;28;20036;-72
2021/04/26 12:17:54;;;;;;;5.85;3.80;;;17.10;62.80;;;;;;5061154;28;20536;-70
2021/04/26 12:20:25;;;;;;;6.20;3.97;;;17.30;64.60;;;;;;5063042;28;20044;-69
2021/04/26 12:22:53;;;;;;;7.55;4.30;;;17.30;67.40;;;;;;5052580;28;20533;-72
2021/04/26 12:25:21;;;;;;;6.30;3.25;;;17.40;64.10;;;;;;5064432;28;20536;-70
2021/04/26 12:27:47;;;;;;;6.82;3.58;;;17.30;64.40;;;;;;5052858;28;20021;-74
2021/04/26 12:30:16;;;;;;;10.07;4.10;;;17.00;64.90;;;;;;5063211;28;20025;-70
2021/04/26 12:32:44;;;;;;;5.32;3.33;;;17.20;64.20;;;;;;5071877;28;20101;-70
2021/04/26 12:35:11;;;;;;;3.75;3.40;;;17.10;61.70;;;;;;5062209;28;20033;-69
2021/04/26 12:37:40;;;;;;;10.27;4.28;;;17.00;62.40;;;;;;5069073;28;20045;-68
2021/04/26 12:40:12;;;;;;;5.88;4.38;;;17.10;62.30;;;;;;5072349;28;20105;-67
2021/04/26 12:42:38;;;;;;;4.03;3.00;;;16.90;63.20;;;;;;5059023;28;20362;-72
2021/04/26 12:45:24;;;;;;;7.65;3.83;;;17.30;68.50;;;;;;5067607;28;20021;-72
2021/04/26 12:48:00;;;;;;;4.05;3.65;;;17.30;64.40;;;;;;5066153;28;20439;-73
2021/04/26 12:50:41;;;;;;;4.35;3.40;;;17.50;65.10;;;;;;5067495;28;20100;-73
2021/04/26 12:53:18;;;;;;;8.43;3.90;;;17.70;60.40;;;;;;5072226;28;20021;-68
2021/04/26 12:55:50;;;;;;;5.22;3.85;;;17.50;59.50;;;;;;5068095;28;20032;-70
2021/04/26 12:58:38;;;;;;;7.78;4.05;;;17.60;60.60;;;;;;5067174;28;20028;-69
2021/04/26 13:01:05;;;;;;;7.93;3.38;;;17.60;61.30;;;;;;5066813;28;20048;-69
2021/04/26 13:03:40;;;;;;;6.82;3.85;;;17.50;60.90;;;;;;5070643;28;20016;-69